createdAt,value
2022-10-04T00:02:23.286Z,5.40
2022-10-04T00:06:26.725Z,6.00
2022-10-04T00:10:31.529Z,5.37
2022-10-04T00:14:38.687Z,5.55
2022-10-04T00:18:45.070Z,5.37
2022-10-04T00:23:24.802Z,5.32
2022-10-04T00:27:27.983Z,5.10
2022-10-04T00:31:29.685Z,5.80
2022-10-04T00:35:31.315Z,5.25
2022-10-04T00:39:32.928Z,6.35
2022-10-04T00:43:46.124Z,5.10
2022-10-04T00:47:47.720Z,4.97
2022-10-04T00:51:57.944Z,5.62
2022-10-04T00:56:03.310Z,5.18
2022-10-04T01:00:11.178Z,5.57
2022-10-04T01:04:24.604Z,5.30
2022-10-04T01:08:31.412Z,4.70
2022-10-04T01:12:52.021Z,5.05
2022-10-04T01:16:53.856Z,5.37
2022-10-04T01:20:58.087Z,5.45
2022-10-04T01:24:59.771Z,6.20
2022-10-04T01:29:09.919Z,6.07
2022-10-04T01:33:12.989Z,5.75
2022-10-04T01:37:14.852Z,6.47
2022-10-04T01:41:21.388Z,6.32
2022-10-04T01:45:35.283Z,6.53
2022-10-04T01:49:39.079Z,6.20
2022-10-04T01:53:49.789Z,5.85
2022-10-04T01:58:21.132Z,6.03
2022-10-04T02:02:41.360Z,5.95
2022-10-04T02:06:45.703Z,5.60
2022-10-04T02:10:49.513Z,5.50
2022-10-04T02:14:53.133Z,5.50
2022-10-04T02:18:55.845Z,5.43
2022-10-04T02:23:02.944Z,5.65
2022-10-04T02:27:06.139Z,5.60
2022-10-04T02:31:28.602Z,5.75
2022-10-04T02:35:52.329Z,5.55
2022-10-04T02:40:02.854Z,5.65
2022-10-04T02:44:20.426Z,6.15
2022-10-04T02:52:43.853Z,6.72
2022-10-04T02:56:50.896Z,7.68
2022-10-04T03:00:57.210Z,7.72
2022-10-04T03:05:08.584Z,8.33
2022-10-04T03:09:10.461Z,7.75
2022-10-04T03:13:13.892Z,8.10
2022-10-04T03:17:16.760Z,8.27
2022-10-04T03:21:20.548Z,8.20
2022-10-04T03:25:29.989Z,8.48
2022-10-04T03:29:33.960Z,8.32
2022-10-04T03:33:35.823Z,7.72
2022-10-04T03:37:38.370Z,7.87
2022-10-04T03:41:41.952Z,7.60
2022-10-04T03:45:44.110Z,7.18
2022-10-04T03:49:50.683Z,7.22
2022-10-04T03:53:58.662Z,7.60
2022-10-04T03:58:01.343Z,6.95
2022-10-04T04:02:19.111Z,7.97
2022-10-04T04:06:22.312Z,7.47
2022-10-04T04:10:28.005Z,8.07
2022-10-04T04:14:29.941Z,7.72
2022-10-04T04:18:34.855Z,7.47
2022-10-04T04:22:37.257Z,7.12
2022-10-04T04:26:45.444Z,8.18
2022-10-04T04:30:50.040Z,7.37
2022-10-04T04:35:00.510Z,7.78
2022-10-04T04:39:43.717Z,7.80
2022-10-04T04:43:45.538Z,6.97
2022-10-04T04:47:56.196Z,6.85
2022-10-04T04:51:58.062Z,6.47
2022-10-04T04:56:04.209Z,6.28
2022-10-04T05:00:07.216Z,5.70
2022-10-04T05:04:08.820Z,5.68
2022-10-04T05:08:24.308Z,7.00
2022-10-04T05:12:27.437Z,6.30
2022-10-04T05:16:31.972Z,6.60
2022-10-04T05:20:34.871Z,6.35
2022-10-04T05:24:46.841Z,7.03
2022-10-04T05:28:48.516Z,7.07
2022-10-04T05:33:18.569Z,6.40
2022-10-04T05:38:07.763Z,6.55
2022-10-04T05:42:22.204Z,6.07
2022-10-04T05:46:35.247Z,6.25
2022-10-04T05:50:42.413Z,6.18
2022-10-04T05:54:44.189Z,4.65
2022-10-04T05:59:23.330Z,5.85
2022-10-04T06:04:08.174Z,5.68
2022-10-04T06:08:15.628Z,5.53
2022-10-04T06:12:55.423Z,5.20
2022-10-04T06:17:25.954Z,5.15
2022-10-04T06:21:29.115Z,5.10
2022-10-04T06:25:59.382Z,5.50
2022-10-04T06:30:04.084Z,5.90
2022-10-04T06:34:29.333Z,5.03
2022-10-04T06:38:34.098Z,5.45
2022-10-04T06:42:50.148Z,4.30
2022-10-04T06:47:19.459Z,4.90
2022-10-04T06:51:26.761Z,4.97
2022-10-04T06:59:48.486Z,5.15
2022-10-04T07:04:05.043Z,5.00
2022-10-04T07:08:34.001Z,4.85
2022-10-04T07:12:41.683Z,4.80
2022-10-04T07:17:01.189Z,5.30
2022-10-04T07:21:13.808Z,4.90
2022-10-04T07:25:21.427Z,4.50
2022-10-04T07:29:28.343Z,4.37
2022-10-04T07:33:41.480Z,4.15
2022-10-04T07:38:21.843Z,4.90
2022-10-04T07:42:32.824Z,4.25
2022-10-04T07:46:46.309Z,4.97
2022-10-04T07:51:26.248Z,4.80
2022-10-04T07:55:58.051Z,5.35
2022-10-04T08:00:20.823Z,4.68
2022-10-04T08:04:38.090Z,4.87
2022-10-04T08:09:02.471Z,4.68
2022-10-04T08:13:15.640Z,4.68
2022-10-04T08:17:25.117Z,5.03
2022-10-04T08:21:36.859Z,5.15
2022-10-04T08:26:17.268Z,5.18
2022-10-04T08:30:19.273Z,4.95
2022-10-04T08:34:23.764Z,5.25
2022-10-04T08:38:42.880Z,5.78
2022-10-04T08:43:15.950Z,5.15
2022-10-04T08:47:22.226Z,5.68
2022-10-04T08:51:50.142Z,6.20
2022-10-04T08:56:21.240Z,5.55
2022-10-04T09:00:44.016Z,5.50
2022-10-04T09:04:56.501Z,5.47
2022-10-04T09:09:10.179Z,5.45
2022-10-04T09:13:36.804Z,4.28
2022-10-04T09:17:53.441Z,4.68
2022-10-04T09:22:33.026Z,4.80
2022-10-04T09:26:41.178Z,4.60
2022-10-04T09:31:08.006Z,4.60
2022-10-04T09:35:24.981Z,3.85
2022-10-04T09:39:46.736Z,3.90
2022-10-04T09:44:12.943Z,2.75
2022-10-04T09:48:44.386Z,3.47
2022-10-04T09:52:55.435Z,3.03
2022-10-04T09:57:39.142Z,3.08
2022-10-04T10:01:59.565Z,2.72
2022-10-04T10:06:04.282Z,2.83
2022-10-04T10:10:45.946Z,2.97
2022-10-04T10:15:15.714Z,3.10
2022-10-04T10:19:45.158Z,3.30
2022-10-04T10:24:07.406Z,3.35
2022-10-04T10:28:30.432Z,3.97
2022-10-04T10:33:03.675Z,3.60
2022-10-04T10:37:35.707Z,3.20
2022-10-04T10:41:44.945Z,3.37
2022-10-04T10:46:00.852Z,4.05
2022-10-04T10:51:00.152Z,3.80
2022-10-04T10:55:08.324Z,3.80
2022-10-04T10:59:31.980Z,3.70
2022-10-04T11:04:01.671Z,3.70
2022-10-04T11:08:34.238Z,3.67
2022-10-04T11:12:50.947Z,3.40
2022-10-04T11:17:13.100Z,3.50
2022-10-04T11:21:30.012Z,4.12
2022-10-04T11:26:03.988Z,3.20
2022-10-04T11:30:56.837Z,3.30
2022-10-04T11:35:35.026Z,3.03
2022-10-04T11:40:10.649Z,3.25
2022-10-04T11:44:30.881Z,2.87
2022-10-04T11:48:53.583Z,3.20
2022-10-04T11:53:30.493Z,3.10
2022-10-04T11:57:45.899Z,2.80
2022-10-04T12:01:50.270Z,3.35
2022-10-04T12:06:03.450Z,2.90
2022-10-04T12:10:20.177Z,3.00
2022-10-04T12:14:40.279Z,3.07
2022-10-04T12:19:02.854Z,3.30
2022-10-04T12:23:30.883Z,2.62
2022-10-04T12:27:54.993Z,2.90
2022-10-04T12:32:18.198Z,2.47
2022-10-04T12:36:39.346Z,3.25
2022-10-04T12:41:04.248Z,3.30
2022-10-04T12:45:21.468Z,3.08
2022-10-04T12:49:25.992Z,2.97
2022-10-04T12:53:58.852Z,3.45
2022-10-04T12:58:07.800Z,2.85
2022-10-04T13:02:35.360Z,2.85
2022-10-04T13:06:59.505Z,2.90
2022-10-04T13:11:18.849Z,2.75
2022-10-04T13:17:24.528Z,2.53
2022-10-04T13:20:37.115Z,2.67
2022-10-04T13:24:56.530Z,2.92
2022-10-04T13:29:18.008Z,2.83
2022-10-04T13:33:51.475Z,2.62
2022-10-04T13:38:19.076Z,3.17
2022-10-04T13:43:19.282Z,2.75
2022-10-04T13:47:52.351Z,2.90
2022-10-04T13:52:50.614Z,2.50
2022-10-04T13:57:18.062Z,2.45
2022-10-04T14:01:48.905Z,2.92
2022-10-04T14:06:09.121Z,2.55
2022-10-04T14:10:49.105Z,2.62
2022-10-04T14:15:16.125Z,2.75
2022-10-04T14:19:36.393Z,2.43
2022-10-04T14:24:23.578Z,3.00
2022-10-04T14:28:51.185Z,3.20
2022-10-04T14:33:11.582Z,2.40
2022-10-04T14:37:34.865Z,2.97
2022-10-04T14:41:56.430Z,3.03
2022-10-04T14:46:22.718Z,3.10
2022-10-04T14:50:47.436Z,2.72
2022-10-04T14:54:54.113Z,2.95
2022-10-04T14:59:10.154Z,2.80
2022-10-04T15:03:48.232Z,3.17
2022-10-04T15:08:15.036Z,2.60
2022-10-04T15:13:05.760Z,2.90
2022-10-04T15:17:24.620Z,3.10
2022-10-04T15:21:44.217Z,2.37
2022-10-04T15:25:48.073Z,2.47
2022-10-04T15:30:14.399Z,2.60
2022-10-04T15:34:47.173Z,2.70
2022-10-04T15:38:53.672Z,2.65
2022-10-04T15:43:13.564Z,2.57
2022-10-04T15:47:44.181Z,2.75
2022-10-04T15:52:13.184Z,2.70
2022-10-04T15:56:41.239Z,3.35
2022-10-04T16:00:52.453Z,2.87
2022-10-04T16:05:07.706Z,3.65
2022-10-04T16:09:37.381Z,2.80
2022-10-04T16:13:59.044Z,2.70
2022-10-04T16:18:02.450Z,2.67
2022-10-04T16:22:16.669Z,3.20
2022-10-04T16:26:19.456Z,3.10
2022-10-04T16:30:39.702Z,3.67
2022-10-04T16:34:59.613Z,4.68
2022-10-04T16:39:22.075Z,4.32
2022-10-04T16:43:28.232Z,4.00
2022-10-04T16:47:47.912Z,3.70
2022-10-04T16:52:09.132Z,4.55
2022-10-04T16:56:18.266Z,8.10
2022-10-04T17:00:35.033Z,5.05
2022-10-04T17:04:36.925Z,4.27
2022-10-04T17:08:55.587Z,4.57
2022-10-04T17:13:23.730Z,4.30
2022-10-04T17:17:47.092Z,8.90
2022-10-04T17:22:18.161Z,7.75
2022-10-04T17:26:35.840Z,4.53
2022-10-04T17:35:11.188Z,5.70
2022-10-04T17:39:23.519Z,5.40
2022-10-04T17:43:41.416Z,5.28
2022-10-04T17:48:07.140Z,5.25
2022-10-04T17:52:29.852Z,6.47
2022-10-04T17:56:38.802Z,7.82
2022-10-04T18:01:04.341Z,19.95
2022-10-04T18:05:26.245Z,6.95
2022-10-04T18:09:33.359Z,6.40
2022-10-04T18:13:46.561Z,5.97
2022-10-04T18:17:51.291Z,5.72
2022-10-04T18:21:56.300Z,6.10
2022-10-04T18:26:01.581Z,5.65
2022-10-04T18:30:16.272Z,5.95
2022-10-04T18:34:28.403Z,5.97
2022-10-04T18:38:42.754Z,5.72
2022-10-04T18:42:52.183Z,6.35
2022-10-04T18:46:57.220Z,17.05
2022-10-04T18:51:39.111Z,6.28
2022-10-04T18:55:57.033Z,6.82
2022-10-04T19:00:23.543Z,6.87
2022-10-04T19:05:06.039Z,6.53
2022-10-04T19:09:18.834Z,7.37
2022-10-04T19:13:33.984Z,6.65
2022-10-04T19:17:59.135Z,6.62
2022-10-04T19:22:26.578Z,6.62
2022-10-04T19:26:41.393Z,8.43
2022-10-04T19:30:58.247Z,8.18
2022-10-04T19:35:15.550Z,7.30
2022-10-04T19:39:47.327Z,7.05
2022-10-04T19:44:05.468Z,6.60
2022-10-04T19:48:25.476Z,6.45
2022-10-04T19:52:46.782Z,5.95
2022-10-04T19:56:50.413Z,6.30
2022-10-04T20:00:52.974Z,6.70
2022-10-04T20:04:56.379Z,7.82
2022-10-04T20:09:23.630Z,7.82
2022-10-04T20:13:25.498Z,7.07
2022-10-04T20:17:32.073Z,6.78
2022-10-04T20:21:34.015Z,6.53
2022-10-04T20:25:45.581Z,6.40
2022-10-04T20:29:53.088Z,6.75
2022-10-04T20:33:54.932Z,5.97
2022-10-04T20:38:13.873Z,6.32
2022-10-04T20:42:28.644Z,7.72
2022-10-04T20:46:38.005Z,7.18
2022-10-04T20:50:42.179Z,8.00
2022-10-04T20:54:52.230Z,7.70
2022-10-04T20:59:02.779Z,8.30
2022-10-04T21:03:17.027Z,6.95
2022-10-04T21:07:21.599Z,7.43
2022-10-04T21:11:23.375Z,6.80
2022-10-04T21:15:25.044Z,8.35
2022-10-04T21:19:30.123Z,8.00
2022-10-04T21:23:34.129Z,7.28
2022-10-04T21:27:38.357Z,8.35
2022-10-04T21:31:40.168Z,7.97
2022-10-04T21:35:41.872Z,7.53
2022-10-04T21:39:44.019Z,7.50
2022-10-04T21:43:45.655Z,8.60
2022-10-04T21:47:47.343Z,7.80
2022-10-04T21:51:48.968Z,7.53
2022-10-04T21:55:50.697Z,7.15
2022-10-04T21:59:52.658Z,7.45
2022-10-04T22:03:54.428Z,8.00
2022-10-04T22:07:58.088Z,7.28
2022-10-04T22:11:59.764Z,7.18
2022-10-04T22:16:15.893Z,7.93
2022-10-04T22:20:17.671Z,7.50
2022-10-04T22:24:20.800Z,6.40
2022-10-04T22:28:27.027Z,7.72
2022-10-04T22:32:28.727Z,6.90
2022-10-04T22:36:36.951Z,6.87
2022-10-04T22:40:38.603Z,7.35
2022-10-04T22:44:41.397Z,6.57
2022-10-04T22:48:48.173Z,6.15
2022-10-04T22:52:49.794Z,6.05
2022-10-04T22:56:52.585Z,6.70
2022-10-04T23:00:55.180Z,6.80
2022-10-04T23:05:01.039Z,6.55
2022-10-04T23:09:02.775Z,6.78
2022-10-04T23:13:04.421Z,6.45
2022-10-04T23:17:25.436Z,7.18
2022-10-04T23:21:33.236Z,6.87
2022-10-04T23:25:34.936Z,6.95
2022-10-04T23:29:36.553Z,6.90
2022-10-04T23:33:38.327Z,7.45
2022-10-04T23:37:40.102Z,8.15
2022-10-04T23:41:42.808Z,7.70
2022-10-04T23:45:44.565Z,7.50
2022-10-04T23:49:49.546Z,7.28
2022-10-04T23:53:51.226Z,8.02
2022-10-04T23:57:52.898Z,7.47
